Time;durP1;ratioP1;P1;durP2;ratioP2;P2;SDS_P1;SDS_P2;PMS_P1;PMS_P2;Temp;Humidity;BMP_temperature;BMP_pressure;BME280_temperature;BME280_humidity;BME280_pressure;Samples;Min_cycle;Max_cycle;Signal;HPM_P1;HPM_P2
2023/12/09 00:00:00;;;;;;;14.97;13.50;;;;;;;22.13;29.66;95024.44;6161929;28;111735;-81
2023/12/09 00:03:05;;;;;;;14.97;13.57;;;;;;;22.15;29.79;95021.47;6157823;28;109188;-80
2023/12/09 00:06:09;;;;;;;14.67;13.27;;;;;;;22.15;29.67;95021.47;6159957;28;112683;-80
2023/12/09 00:09:14;;;;;;;14.37;13.00;;;;;;;22.11;30.25;95011.41;6160435;28;109782;-79
2023/12/09 00:12:17;;;;;;;14.10;12.70;;;;;;;22.15;29.82;95021.47;6162598;28;111574;-80
2023/12/09 00:15:22;;;;;;;14.10;12.80;;;;;;;22.14;29.52;95010.00;6148366;28;109820;-79
2023/12/09 00:18:25;;;;;;;14.40;13.10;;;;;;;22.15;29.62;95024.13;6148739;28;111182;-80
2023/12/09 00:21:29;;;;;;;13.80;12.60;;;;;;;22.15;29.73;95018.78;6138385;28;109617;-80
2023/12/09 00:24:32;;;;;;;12.70;11.50;;;;;;;22.15;29.56;95021.47;6145105;28;109388;-81
2023/12/09 00:27:35;;;;;;;14.37;13.13;;;;;;;22.15;30.02;95016.91;6151144;28;109584;-80
2023/12/09 00:30:40;;;;;;;12.90;11.80;;;;;;;22.14;29.43;95014.56;6155349;28;109184;-79
2023/12/09 00:33:43;;;;;;;13.70;12.40;;;;;;;22.11;30.10;95014.09;6146566;28;109969;-79
2023/12/09 00:36:47;;;;;;;13.70;12.40;;;;;;;22.11;29.86;95019.41;6151864;28;109245;-80
2023/12/09 00:39:50;;;;;;;12.67;11.57;;;;;;;22.14;29.72;95015.34;6132985;28;109086;-79
2023/12/09 00:42:53;;;;;;;13.33;12.13;;;;;;;22.15;29.80;95010.81;6137854;28;112198;-79
2023/12/09 00:45:58;;;;;;;13.83;12.57;;;;;;;22.15;29.57;95008.91;6154852;28;109917;-79
2023/12/09 00:49:01;;;;;;;13.83;12.63;;;;;;;22.14;29.30;95009.22;6134115;28;110166;-79
2023/12/09 00:52:06;;;;;;;14.00;12.70;;;;;;;22.14;29.22;95009.22;6160413;28;111509;-80
2023/12/09 00:55:11;;;;;;;13.40;12.23;;;;;;;22.16;29.84;95015.81;6156554;28;109544;-79
2023/12/09 00:58:16;;;;;;;13.77;12.47;;;;;;;22.13;29.32;95011.09;6159114;28;110092;-83
2023/12/09 01:01:20;;;;;;;13.67;12.47;;;;;;;22.15;29.31;95021.47;6144563;28;109516;-80
2023/12/09 01:04:24;;;;;;;13.23;12.07;;;;;;;22.16;29.24;95023.03;6164602;28;110593;-79
2023/12/09 01:07:27;;;;;;;13.50;12.20;;;;;;;22.14;29.47;95022.56;6165747;28;113225;-80
2023/12/09 01:10:30;;;;;;;13.30;12.10;;;;;;;22.15;29.48;95026.78;6164352;28;109226;-79
2023/12/09 01:13:33;;;;;;;12.67;11.57;;;;;;;22.13;29.48;95020.97;6156434;28;110460;-79
2023/12/09 01:16:38;;;;;;;12.90;11.70;;;;;;;22.13;29.59;95029.75;6158911;28;108557;-80
2023/12/09 01:19:41;;;;;;;13.30;12.20;;;;;;;22.15;29.52;95026.78;6164987;28;108931;-80
2023/12/09 01:22:47;;;;;;;12.60;11.50;;;;;;;22.13;29.85;95029.75;6158117;28;109368;-81
2023/12/09 01:25:50;;;;;;;12.50;11.40;;;;;;;22.14;29.77;95030.56;6161870;28;109394;-80
2023/12/09 01:28:56;;;;;;;12.37;11.13;;;;;;;22.09;29.28;95024.25;6164297;28;111400;-80
2023/12/09 01:32:01;;;;;;;11.13;10.23;;;;;;;22.13;29.26;95039.63;6147445;28;112467;-80
2023/12/09 01:35:05;;;;;;;11.93;10.83;;;;;;;22.14;29.61;95041.22;6151814;28;109433;-80
2023/12/09 01:38:09;;;;;;;11.57;10.47;;;;;;;22.13;29.48;95031.66;6140491;28;109768;-80
2023/12/09 01:41:12;;;;;;;11.67;10.47;;;;;;;22.12;29.73;95028.19;6140666;28;109220;-80
2023/12/09 01:44:17;;;;;;;11.13;10.23;;;;;;;22.10;29.56;95025.84;6159523;28;111424;-80
2023/12/09 01:47:22;;;;;;;11.10;10.20;;;;;;;22.08;29.51;95022.69;6155153;28;111348;-79
2023/12/09 01:50:27;;;;;;;10.90;9.90;;;;;;;22.06;29.75;95008.09;6149184;28;109638;-79
2023/12/09 01:53:30;;;;;;;11.60;10.40;;;;;;;22.11;29.52;95016.75;6164171;28;109569;-81
2023/12/09 01:56:34;;;;;;;10.73;9.83;;;;;;;22.07;29.77;95007.81;6145383;28;111429;-82
2023/12/09 01:59:37;;;;;;;9.90;9.00;;;;;;;22.12;29.21;95004.22;6148742;28;108891;-83
2023/12/09 02:02:42;;;;;;;10.40;9.40;;;;;;;22.11;29.77;95011.41;6164855;28;110229;-80
2023/12/09 02:05:45;;;;;;;9.90;8.90;;;;;;;22.11;29.77;94998.09;6155596;28;110301;-81
2023/12/09 02:08:49;;;;;;;10.00;9.10;;;;;;;22.09;29.35;94997.63;6131362;28;109957;-80
2023/12/09 02:11:59;;;;;;;10.20;9.30;;;;;;;22.05;29.34;94990.56;6143290;28;111002;-80
2023/12/09 02:15:07;;;;;;;9.90;9.00;;;;;;;22.09;29.40;94986.97;6142445;28;109584;-81
2023/12/09 02:18:13;;;;;;;9.83;9.03;;;;;;;22.10;29.56;94996.53;6160587;28;109310;-80
2023/12/09 02:21:17;;;;;;;9.83;8.97;;;;;;;22.07;29.43;94999.81;6137329;28;109753;-81
2023/12/09 02:24:21;;;;;;;9.43;8.53;;;;;;;22.09;29.16;95007.50;6140610;28;109625;-80
2023/12/09 02:27:32;;;;;;;8.80;8.00;;;;;;;22.10;29.54;95004.50;6140090;28;109002;-81
2023/12/09 02:30:45;;;;;;;9.07;8.17;;;;;;;22.07;29.43;94999.81;6148179;28;109475;-81
2023/12/09 02:33:49;;;;;;;8.53;7.80;;;;;;;22.07;29.19;95004.34;6152265;28;112533;-80
2023/12/09 02:36:53;;;;;;;8.90;8.10;;;;;;;22.07;29.09;94999.81;6153787;28;109467;-81
2023/12/09 02:40:00;;;;;;;8.63;7.83;;;;;;;22.08;29.52;94993.38;6163912;28;113108;-81
2023/12/09 02:43:05;;;;;;;8.93;8.13;;;;;;;22.07;29.62;94989.16;6152099;28;111889;-81
2023/12/09 02:46:12;;;;;;;9.10;8.30;;;;;;;22.06;29.37;94990.25;6139132;28;110449;-80
2023/12/09 02:49:15;;;;;;;8.87;8.07;;;;;;;22.04;29.28;94987.09;6162649;28;109283;-80
2023/12/09 02:52:19;;;;;;;9.33;8.53;;;;;;;22.00;29.42;94988.78;6164226;28;109019;-80
2023/12/09 02:55:24;;;;;;;9.47;8.67;;;;;;;22.04;29.44;94995.09;6139426;28;109298;-80
2023/12/09 02:58:27;;;;;;;8.73;7.93;;;;;;;22.06;29.04;94998.22;6157240;28;109414;-80
2023/12/09 03:01:30;;;;;;;8.90;8.10;;;;;;;21.94;29.35;94974.03;6145376;28;110950;-79
2023/12/09 03:04:34;;;;;;;8.43;7.63;;;;;;;22.04;29.18;94988.97;6150742;28;108789;-79
2023/12/09 03:07:37;;;;;;;9.13;8.33;;;;;;;22.07;28.91;94999.03;6153548;28;109332;-78
2023/12/09 03:10:41;;;;;;;8.43;7.63;;;;;;;22.02;29.09;94981.28;6163118;28;112547;-79
2023/12/09 03:13:45;;;;;;;9.13;8.33;;;;;;;22.04;29.11;94988.97;6162152;28;109163;-79
2023/12/09 03:16:48;;;;;;;8.10;7.33;;;;;;;22.02;29.15;94986.63;6148813;28;109393;-79
2023/12/09 03:19:51;;;;;;;8.67;7.87;;;;;;;22.02;29.28;94981.28;6163003;28;109445;-79
2023/12/09 03:22:54;;;;;;;8.43;7.53;;;;;;;22.05;29.10;94979.88;6162134;28;109564;-79
2023/12/09 03:25:59;;;;;;;7.70;7.03;;;;;;;22.01;28.89;94998.38;6145080;28;109380;-79
2023/12/09 03:29:02;;;;;;;8.53;7.83;;;;;;;22.04;29.21;94999.63;6154692;28;109599;-79
2023/12/09 03:32:05;;;;;;;7.53;6.83;;;;;;;21.94;28.79;94979.34;6162093;28;111170;-79
2023/12/09 03:35:12;;;;;;;8.67;7.87;;;;;;;22.04;28.91;94991.66;6161102;28;110301;-79
2023/12/09 03:38:15;;;;;;;7.83;7.13;;;;;;;21.88;29.00;94969.94;6162150;28;112329;-79
2023/12/09 03:41:20;;;;;;;8.37;7.57;;;;;;;22.03;29.05;94998.84;6153406;28;109827;-79
2023/12/09 03:44:27;;;;;;;7.53;6.83;;;;;;;22.03;28.85;94990.06;6160877;28;109415;-79
2023/12/09 03:47:31;;;;;;;8.03;7.33;;;;;;;21.99;29.05;94992.53;6161989;28;109723;-78
2023/12/09 03:50:34;;;;;;;7.80;7.10;;;;;;;22.04;29.12;94996.97;6154795;28;109894;-79
2023/12/09 03:53:37;;;;;;;8.70;7.90;;;;;;;22.00;29.00;94988.00;6161387;28;109895;-79
2023/12/09 03:56:42;;;;;;;7.53;6.83;;;;;;;22.02;28.78;94997.28;6151584;28;109510;-80
2023/12/09 03:59:45;;;;;;;8.27;7.00;;;;;;;22.04;28.93;95003.09;6159350;28;109736;-79
2023/12/09 04:02:48;;;;;;;8.20;7.40;;;;;;;22.03;28.68;95001.50;6154241;28;110392;-81
2023/12/09 04:05:51;;;;;;;7.47;6.77;;;;;;;22.04;28.82;95008.41;6162211;28;108819;-79
2023/12/09 04:08:54;;;;;;;7.00;6.40;;;;;;;22.03;28.77;95009.50;6162072;28;109281;-79
2023/12/09 04:12:00;;;;;;;7.37;6.60;;;;;;;22.06;28.90;95006.22;6155330;28;110679;-87
2023/12/09 04:15:03;;;;;;;7.70;6.63;;;;;;;22.12;28.67;95012.19;6155821;28;110644;-86
2023/12/09 04:18:07;;;;;;;7.73;6.77;;;;;;;22.14;28.56;95014.56;6161967;28;109265;-86
2023/12/09 04:21:10;;;;;;;6.93;6.33;;;;;;;22.16;28.77;95017.69;6165338;28;109869;-86
2023/12/09 04:24:14;;;;;;;6.23;5.63;;;;;;;22.22;28.47;95019.16;6159803;28;110711;-85
2023/12/09 04:27:18;;;;;;;6.20;5.70;;;;;;;22.18;28.71;95013.66;6159466;28;110908;-85
2023/12/09 04:30:23;;;;;;;6.73;6.13;;;;;;;22.24;28.74;95024.97;6164931;28;112272;-85
2023/12/09 04:33:26;;;;;;;6.87;6.23;;;;;;;22.23;28.60;95023.41;6155532;28;112212;-86
2023/12/09 04:36:29;;;;;;;6.50;5.90;;;;;;;22.24;28.47;95019.63;6150720;28;109402;-85
2023/12/09 04:39:33;;;;;;;6.00;5.50;;;;;;;22.25;28.65;95019.31;6168696;28;110891;-86
2023/12/09 04:42:37;;;;;;;6.23;5.67;;;;;;;22.23;28.66;95016.19;6159855;28;108763;-85
2023/12/09 04:45:41;;;;;;;5.63;5.13;;;;;;;22.24;28.68;95019.63;6168695;28;108918;-88
2023/12/09 04:48:44;;;;;;;6.57;6.03;;;;;;;22.23;28.32;95021.53;6144639;28;109668;-88
2023/12/09 04:51:48;;;;;;;5.73;5.13;;;;;;;22.25;28.00;95021.22;6156497;28;111430;-90
2023/12/09 04:54:51;;;;;;;5.60;5.10;;;;;;;22.23;28.46;95024.19;6158057;28;109111;-88
2023/12/09 04:57:57;;;;;;;5.37;4.87;;;;;;;22.23;28.33;95023.41;6165740;28;109765;-86
2023/12/09 05:01:01;;;;;;;5.60;5.10;;;;;;;22.19;28.50;95014.44;6163212;28;111141;-86
2023/12/09 05:04:05;;;;;;;5.27;4.80;;;;;;;22.26;28.60;95031.56;6167864;28;112241;-86
2023/12/09 05:07:08;;;;;;;5.10;4.70;;;;;;;22.24;28.67;95035.63;6167996;28;110019;-86
2023/12/09 05:10:12;;;;;;;6.27;5.67;;;;;;;22.24;28.56;95033.75;6162417;28;109663;-84
2023/12/09 05:13:17;;;;;;;5.77;5.20;;;;;;;22.16;28.32;95023.81;6155956;28;111498;-85
2023/12/09 05:16:20;;;;;;;5.40;4.90;;;;;;;22.26;28.28;95046.78;6167679;28;112533;-83
2023/12/09 05:19:24;;;;;;;5.60;5.10;;;;;;;22.21;28.32;95046.91;6168084;28;111485;-85
2023/12/09 05:22:27;;;;;;;6.23;5.67;;;;;;;22.24;28.43;95056.97;6157745;28;108891;-85
2023/12/09 05:25:31;;;;;;;4.93;4.53;;;;;;;22.24;28.42;95067.63;6166915;28;109232;-84
2023/12/09 05:28:36;;;;;;;5.10;4.63;;;;;;;22.26;28.06;95070.75;6168108;28;110162;-85
2023/12/09 05:31:40;;;;;;;4.53;4.13;;;;;;;22.26;28.51;95070.75;6163701;28;109043;-83
2023/12/09 05:34:43;;;;;;;5.30;4.80;;;;;;;22.24;28.12;95073.75;6154241;28;108888;-86
2023/12/09 05:37:47;;;;;;;4.90;4.50;;;;;;;22.24;28.52;95070.28;6167526;28;108971;-81
2023/12/09 05:40:50;;;;;;;5.60;4.70;;;;;;;22.23;28.06;95071.38;6166696;28;111173;-82
2023/12/09 05:43:55;;;;;;;5.00;4.60;;;;;;;22.14;27.89;95073.19;6151454;28;110854;-81
2023/12/09 05:46:58;;;;;;;4.63;4.23;;;;;;;22.22;28.25;95091.13;6161061;28;112798;-82
2023/12/09 05:50:01;;;;;;;5.03;4.57;;;;;;;22.22;27.93;95075.13;6166318;28;109878;-83
2023/12/09 05:53:04;;;;;;;4.73;4.33;;;;;;;22.24;27.90;95072.94;6165377;28;109137;-81
2023/12/09 05:56:10;;;;;;;5.13;4.63;;;;;;;22.23;28.48;95082.81;6157418;28;110007;-81
2023/12/09 05:59:15;;;;;;;4.93;4.53;;;;;;;22.24;28.01;95083.59;6161796;28;111701;-82
2023/12/09 06:02:18;;;;;;;5.07;4.57;;;;;;;22.23;28.16;95090.03;6158728;28;112311;-83
2023/12/09 06:05:25;;;;;;;5.13;4.63;;;;;;;22.25;28.12;95095.84;6165038;28;108722;-81
2023/12/09 06:08:28;;;;;;;4.83;4.37;;;;;;;22.27;28.02;95088.31;6156954;28;110045;-83
2023/12/09 06:11:31;;;;;;;7.40;5.40;;;;;;;22.10;28.56;95089.00;6161364;28;113743;-80
2023/12/09 06:14:36;;;;;;;5.67;4.90;;;;;;;22.04;29.28;95085.69;6162141;28;111922;-79
2023/12/09 06:17:39;;;;;;;5.03;4.53;;;;;;;21.99;30.32;95093.78;6151073;28;111025;-83
2023/12/09 06:20:42;;;;;;;6.37;5.13;;;;;;;21.99;29.83;95093.00;6154435;28;109578;-83
2023/12/09 06:23:47;;;;;;;5.87;4.70;;;;;;;21.96;29.90;95101.63;6143344;28;108916;-86
2023/12/09 06:26:50;;;;;;;6.00;5.50;;;;;;;21.96;29.86;95098.94;6153457;28;109780;-81
2023/12/09 06:29:55;;;;;;;6.20;5.60;;;;;;;22.05;29.82;95094.47;6145166;28;109295;-80
2023/12/09 06:33:00;;;;;;;8.20;5.90;;;;;;;21.84;30.18;95080.84;6161312;28;109369;-81
2023/12/09 06:36:04;;;;;;;7.67;5.67;;;;;;;21.82;30.31;95099.00;6156805;28;109375;-81
2023/12/09 06:39:08;;;;;;;6.20;5.00;;;;;;;21.79;29.90;95104.91;6155198;28;109462;-81
2023/12/09 06:42:12;;;;;;;6.13;5.60;;;;;;;21.77;30.31;95101.75;6155087;28;109350;-81
2023/12/09 06:45:17;;;;;;;6.60;6.00;;;;;;;21.73;30.30;95096.25;6164032;28;109143;-81
2023/12/09 06:48:21;;;;;;;6.23;5.47;;;;;;;21.75;30.47;95107.38;6152903;28;111126;-81
2023/12/09 06:51:25;;;;;;;6.60;6.00;;;;;;;21.74;30.09;95113.81;6163112;28;109671;-81
2023/12/09 06:54:28;;;;;;;8.93;6.87;;;;;;;21.73;30.20;95109.56;6150148;28;112342;-80
2023/12/09 06:57:31;;;;;;;10.23;7.93;;;;;;;21.71;30.20;95116.28;6159484;28;109454;-82
2023/12/09 07:00:37;;;;;;;9.90;8.47;;;;;;;21.70;30.43;95107.50;6163123;28;109505;-81
2023/12/09 07:03:41;;;;;;;10.03;8.30;;;;;;;21.74;30.42;95119.13;6147578;28;109502;-81
2023/12/09 07:06:44;;;;;;;10.80;9.70;;;;;;;21.72;30.71;95120.53;6151622;28;109036;-82
2023/12/09 07:09:50;;;;;;;11.13;8.40;;;;;;;21.81;30.29;95127.47;6157979;28;113005;-82
2023/12/09 07:12:53;;;;;;;11.40;9.47;;;;;;;21.77;30.83;95121.19;6157928;28;109078;-81
2023/12/09 07:15:58;;;;;;;11.87;9.50;;;;;;;21.74;30.78;95119.13;6149939;28;109677;-81
2023/12/09 07:19:02;;;;;;;19.53;10.57;;;;;;;21.78;30.64;95120.09;6156885;28;111146;-80
2023/12/09 07:22:05;;;;;;;22.13;11.50;;;;;;;21.81;30.94;95132.81;6163723;28;109356;-81
2023/12/09 07:25:09;;;;;;;11.87;10.67;;;;;;;21.81;30.90;95130.16;6156942;28;112348;-79
2023/12/09 07:28:13;;;;;;;19.77;11.27;;;;;;;21.76;30.90;95127.59;6148324;28;109574;-78
2023/12/09 07:31:18;;;;;;;12.13;9.50;;;;;;;21.77;30.74;95133.72;6161501;28;109059;-78
2023/12/09 07:34:22;;;;;;;11.60;10.00;;;;;;;21.77;31.23;95144.38;6163584;28;109501;-78
2023/12/09 07:37:25;;;;;;;11.43;10.30;;;;;;;21.75;31.35;95157.22;6143865;28;109283;-79
2023/12/09 07:40:29;;;;;;;12.73;11.43;;;;;;;21.71;30.90;95145.59;6136203;28;109458;-80
2023/12/09 07:43:32;;;;;;;13.60;10.73;;;;;;;21.75;30.98;95147.34;6155620;28;108743;-79
2023/12/09 07:46:37;;;;;;;15.27;10.80;;;;;;;21.76;31.41;95140.13;6171531;28;109459;-81
2023/12/09 07:49:41;;;;;;;21.63;11.50;;;;;;;21.78;31.25;95148.63;6162308;28;109105;-80
2023/12/09 07:52:46;;;;;;;15.20;13.27;;;;;;;21.71;31.22;95150.91;6167613;28;108977;-80
2023/12/09 07:55:49;;;;;;;14.33;12.93;;;;;;;21.72;31.29;95163.94;6150028;28;108618;-84
2023/12/09 07:58:53;;;;;;;13.57;12.13;;;;;;;21.72;31.53;95163.16;6149812;28;109446;-79
2023/12/09 08:01:57;;;;;;;13.90;12.03;;;;;;;21.71;31.41;95156.25;6138452;28;111159;-77
2023/12/09 08:05:01;;;;;;;12.57;11.27;;;;;;;21.71;31.45;95158.91;6170836;28;109184;-78
2023/12/09 08:08:05;;;;;;;13.00;11.57;;;;;;;21.75;31.09;95171.31;6171469;28;109003;-79
2023/12/09 08:11:11;;;;;;;13.63;12.10;;;;;;;21.77;31.32;95176.34;6174265;28;111138;-78
2023/12/09 08:14:15;;;;;;;14.13;12.00;;;;;;;21.75;31.33;95165.19;6168138;28;111487;-79
2023/12/09 08:17:19;;;;;;;14.60;12.43;;;;;;;21.74;31.64;95166.28;6171947;28;109668;-79
2023/12/09 08:20:22;;;;;;;13.43;11.57;;;;;;;21.78;31.09;95172.59;6144207;28;109338;-77
2023/12/09 08:23:26;;;;;;;13.87;12.30;;;;;;;21.74;31.20;95166.28;6141315;28;109167;-81
2023/12/09 08:26:30;;;;;;;12.67;11.47;;;;;;;21.73;31.10;95173.50;6146701;28;109035;-77
2023/12/09 08:29:35;;;;;;;14.40;12.90;;;;;;;21.73;31.49;95165.50;6165109;28;110952;-77
2023/12/09 08:32:41;;;;;;;13.73;12.43;;;;;;;21.76;31.33;95172.09;6169084;28;108609;-78
2023/12/09 08:35:45;;;;;;;13.53;12.17;;;;;;;21.76;30.89;95174.75;6140730;28;110161;-77
2023/12/09 08:38:51;;;;;;;13.37;12.07;;;;;;;21.74;31.19;95172.41;6158336;28;109220;-77
2023/12/09 08:41:55;;;;;;;14.00;12.70;;;;;;;21.74;31.08;95166.28;6172809;28;109549;-77
2023/12/09 08:44:58;;;;;;;15.03;13.53;;;;;;;21.73;31.33;95164.72;6170477;28;110313;-77
2023/12/09 08:48:06;;;;;;;14.73;13.33;;;;;;;21.73;31.35;95164.72;6160993;28;110330;-78
2023/12/09 08:51:10;;;;;;;15.17;13.57;;;;;;;21.74;31.25;95168.94;6144632;28;109399;-78
2023/12/09 08:54:14;;;;;;;15.90;14.47;;;;;;;21.73;31.01;95160.19;6160059;28;111916;-77
2023/12/09 08:57:18;;;;;;;15.50;14.10;;;;;;;21.74;31.10;95172.41;6163173;28;109378;-78
2023/12/09 09:00:25;;;;;;;15.77;14.37;;;;;;;21.75;30.99;95162.53;6158319;28;109389;-76
2023/12/09 09:03:30;;;;;;;14.70;13.30;;;;;;;21.74;31.33;95167.06;6144827;28;111236;-77
2023/12/09 09:06:34;;;;;;;16.43;14.93;;;;;;;21.75;30.81;95167.88;6144884;28;111296;-77
2023/12/09 09:09:39;;;;;;;16.10;14.60;;;;;;;21.75;31.08;95167.88;6134905;28;109667;-77
2023/12/09 09:12:43;;;;;;;14.87;13.37;;;;;;;21.74;31.01;95161.75;6142053;28;110159;-77
2023/12/09 09:15:48;;;;;;;15.43;13.90;;;;;;;21.75;31.09;95158.00;6140625;28;109329;-77
2023/12/09 09:18:54;;;;;;;16.77;15.17;;;;;;;21.74;31.31;95153.75;6144554;28;111160;-78
2023/12/09 09:21:59;;;;;;;16.27;14.87;;;;;;;21.73;30.58;95144.19;6137582;28;110024;-78
2023/12/09 09:25:02;;;;;;;15.30;13.80;;;;;;;21.74;31.09;95142.31;6145638;28;109482;-77
2023/12/09 09:28:06;;;;;;;15.27;13.77;;;;;;;21.73;31.17;95125.56;6148213;28;111215;-78
2023/12/09 09:31:11;;;;;;;16.60;15.13;;;;;;;21.73;30.88;95141.53;6166732;28;109300;-78
2023/12/09 09:34:16;;;;;;;16.30;14.80;;;;;;;21.71;31.21;95130.41;6167316;28;109240;-79
2023/12/09 09:37:20;;;;;;;17.23;15.63;;;;;;;21.77;31.50;95128.41;6169989;28;109482;-79
2023/12/09 09:40:24;;;;;;;16.57;14.87;;;;;;;21.74;30.91;95119.13;6170157;28;109528;-78
2023/12/09 09:43:31;;;;;;;15.97;14.30;;;;;;;21.75;31.32;95119.91;6159542;28;113165;-77
2023/12/09 09:46:38;;;;;;;18.13;14.80;;;;;;;21.72;31.35;95112.53;6167147;28;110275;-77
2023/12/09 09:49:47;;;;;;;16.80;15.10;;;;;;;21.79;31.41;95118.22;6172581;28;111774;-79
2023/12/09 09:52:53;;;;;;;16.43;14.73;;;;;;;21.79;31.28;95110.22;6151662;28;109621;-77
2023/12/09 09:55:58;;;;;;;16.20;14.50;;;;;;;21.78;30.96;95104.13;6143995;28;109565;-78
2023/12/09 09:59:03;;;;;;;16.97;15.20;;;;;;;21.86;31.12;95115.19;6148804;28;108598;-78
2023/12/09 10:02:07;;;;;;;16.20;14.60;;;;;;;21.88;31.68;95113.78;6168346;28;109729;-78
2023/12/09 10:05:12;;;;;;;24.03;17.00;;;;;;;21.88;31.80;95119.13;6150801;28;108819;-81
2023/12/09 10:08:16;;;;;;;19.03;16.37;;;;;;;21.85;32.12;95114.41;6162841;28;111919;-80
2023/12/09 10:11:19;;;;;;;23.33;18.33;;;;;;;21.84;31.97;95118.13;6172372;28;109663;-80
2023/12/09 10:14:23;;;;;;;22.17;18.10;;;;;;;21.86;32.24;95118.63;6163701;28;112185;-79
2023/12/09 10:17:27;;;;;;;28.40;17.87;;;;;;;21.88;32.52;95111.13;6157563;28;110219;-80
2023/12/09 10:20:34;;;;;;;26.00;16.30;;;;;;;21.82;32.51;95109.66;6162953;28;109365;-78
2023/12/09 10:23:37;;;;;;;24.03;16.20;;;;;;;21.99;31.95;95122.31;6168357;28;109343;-78
2023/12/09 10:26:41;;;;;;;22.97;16.80;;;;;;;22.06;32.22;95115.50;6171786;28;108748;-77
2023/12/09 10:29:46;;;;;;;22.20;16.23;;;;;;;22.11;32.69;95128.69;6166312;28;110530;-79
2023/12/09 10:32:51;;;;;;;25.20;16.30;;;;;;;22.05;32.96;95113.91;6167941;28;113664;-80
2023/12/09 10:35:57;;;;;;;25.03;16.03;;;;;;;22.08;33.03;95107.97;6150642;28;109048;-78
2023/12/09 10:39:00;;;;;;;18.63;14.50;;;;;;;22.08;32.73;95115.19;6150193;28;109360;-79
2023/12/09 10:42:05;;;;;;;10.43;8.40;;;;;;;21.47;30.31;95112.00;6164083;28;109385;-79
2023/12/09 10:45:11;;;;;;;9.60;8.60;;;;;;;21.45;30.80;95100.06;6161829;28;109845;-79
2023/12/09 10:48:14;;;;;;;12.33;9.70;;;;;;;21.56;30.39;95100.66;6171242;28;109528;-78
2023/12/09 10:51:20;;;;;;;12.07;10.67;;;;;;;21.32;29.90;95100.88;6164200;28;108718;-76
2023/12/09 10:54:23;;;;;;;12.13;10.93;;;;;;;21.44;29.75;95093.19;6163665;28;109920;-78
2023/12/09 10:57:28;;;;;;;10.70;9.33;;;;;;;21.52;29.75;95092.47;6166293;28;110476;-80
2023/12/09 11:00:36;;;;;;;10.30;9.30;;;;;;;21.59;29.53;95092.06;6172823;28;109577;-79
2023/12/09 11:03:40;;;;;;;12.83;9.00;;;;;;;21.57;29.84;95092.38;6157466;28;109692;-79
2023/12/09 11:06:46;;;;;;;8.87;7.77;;;;;;;21.49;29.59;95083.19;6165344;28;109440;-77
2023/12/09 11:09:50;;;;;;;8.50;7.70;;;;;;;21.58;29.46;95082.50;6167918;28;109400;-77
2023/12/09 11:12:54;;;;;;;9.10;7.60;;;;;;;21.66;29.00;95087.88;6168256;28;108792;-76
2023/12/09 11:16:10;;;;;;;8.20;7.00;;;;;;;21.67;28.97;95084.13;6162442;28;109113;-76
2023/12/09 11:19:16;;;;;;;6.70;6.10;;;;;;;21.70;29.09;95085.41;6165914;28;108947;-77
2023/12/09 11:22:22;;;;;;;6.93;6.17;;;;;;;21.72;28.90;95086.69;6143527;28;108522;-76
2023/12/09 11:25:27;;;;;;;7.77;6.80;;;;;;;21.73;29.18;95074.94;6144589;28;109079;-79
2023/12/09 11:28:31;;;;;;;6.97;6.20;;;;;;;21.73;28.81;95064.28;6152262;28;109011;-79
2023/12/09 11:31:39;;;;;;;7.30;5.90;;;;;;;21.74;29.41;95063.19;6145891;28;110476;-78
2023/12/09 11:34:43;;;;;;;8.17;7.37;;;;;;;21.65;28.92;95045.56;6150722;28;109154;-78
2023/12/09 11:37:50;;;;;;;8.90;8.17;;;;;;;21.81;29.04;95068.09;6161176;28;109478;-79
2023/12/09 11:40:54;;;;;;;8.47;7.67;;;;;;;21.78;29.69;95069.50;6166317;28;109499;-78
2023/12/09 11:43:58;;;;;;;9.27;8.40;;;;;;;21.81;29.30;95062.75;6166698;28;109791;-78
2023/12/09 11:47:04;;;;;;;8.77;7.87;;;;;;;21.78;29.03;95055.38;6164551;28;112958;-78
2023/12/09 11:50:08;;;;;;;8.90;8.00;;;;;;;21.80;29.29;95053.19;6153704;28;108810;-79
2023/12/09 11:53:13;;;;;;;8.53;7.80;;;;;;;21.91;29.55;95051.91;6169206;28;109426;-78
2023/12/09 11:56:16;;;;;;;9.73;8.77;;;;;;;22.05;30.12;95047.28;6150669;28;109097;-80
2023/12/09 11:59:20;;;;;;;9.17;8.03;;;;;;;22.23;29.77;95045.50;6157195;28;109042;-78
2023/12/09 12:02:23;;;;;;;12.03;9.27;;;;;;;22.28;29.99;95050.69;6162508;28;110473;-78
2023/12/09 12:05:27;;;;;;;11.00;8.07;;;;;;;22.31;30.35;95047.41;6169700;28;109188;-80
2023/12/09 12:08:35;;;;;;;10.33;8.73;;;;;;;22.18;30.16;95052.81;6171604;28;109281;-80
2023/12/09 12:11:40;;;;;;;11.60;8.70;;;;;;;22.10;30.95;95055.16;6148513;28;112237;-79
2023/12/09 12:14:43;;;;;;;10.90;8.23;;;;;;;22.16;30.92;95052.34;6166973;28;112403;-78
2023/12/09 12:17:48;;;;;;;9.33;7.77;;;;;;;22.11;31.12;95051.41;6160745;28;108831;-78
2023/12/09 12:20:51;;;;;;;10.70;8.20;;;;;;;22.05;31.09;95060.63;6166901;28;109332;-79
2023/12/09 12:23:56;;;;;;;9.73;8.60;;;;;;;22.01;31.44;95053.50;6161071;28;109930;-79
2023/12/09 12:27:00;;;;;;;9.57;7.73;;;;;;;22.10;31.47;95057.81;6149353;28;109562;-77
2023/12/09 12:30:04;;;;;;;12.47;8.10;;;;;;;22.08;31.75;95054.69;6166529;28;109232;-78
2023/12/09 12:33:07;;;;;;;12.53;7.20;;;;;;;22.12;31.52;95049.50;6161018;28;111382;-78
2023/12/09 12:36:11;;;;;;;8.43;7.20;;;;;;;22.20;31.90;95046.13;6160872;28;109179;-78
2023/12/09 12:39:17;;;;;;;10.50;7.70;;;;;;;22.16;31.65;95049.69;6158370;28;109666;-76
2023/12/09 12:42:20;;;;;;;9.63;7.57;;;;;;;22.17;31.81;95043.25;6168990;28;112583;-79
2023/12/09 12:45:24;;;;;;;11.40;6.73;;;;;;;22.10;32.43;95041.03;6159708;28;109294;-78
2023/12/09 12:48:31;;;;;;;13.20;7.60;;;;;;;22.15;32.14;95048.13;6167962;28;109727;-79
2023/12/09 12:51:34;;;;;;;13.87;7.20;;;;;;;22.13;31.84;95040.44;6168224;28;113370;-79
2023/12/09 12:54:40;;;;;;;10.57;6.67;;;;;;;22.07;31.89;95042.44;6166587;28;108989;-77
2023/12/09 12:57:44;;;;;;;11.90;6.80;;;;;;;22.19;32.34;95049.88;6141431;28;109870;-77
2023/12/09 13:00:49;;;;;;;7.80;5.87;;;;;;;22.26;31.96;95050.22;6156299;28;109409;-79
2023/12/09 13:03:53;;;;;;;9.23;6.20;;;;;;;22.20;31.80;95040.00;6147557;28;109535;-79
2023/12/09 13:06:56;;;;;;;7.47;6.27;;;;;;;22.06;32.18;95051.53;6145750;28;109223;-79
2023/12/09 13:10:05;;;;;;;10.70;6.47;;;;;;;21.94;32.37;95058.50;6139434;28;109957;-80
2023/12/09 13:13:08;;;;;;;11.20;6.63;;;;;;;21.74;32.15;95030.44;6142282;28;110328;-80
2023/12/09 13:16:11;;;;;;;8.57;6.20;;;;;;;21.81;32.06;95047.56;6146442;28;108576;-80
2023/12/09 13:19:15;;;;;;;6.30;5.70;;;;;;;21.90;32.07;95050.34;6135612;28;109669;-79
2023/12/09 13:22:18;;;;;;;8.77;5.20;;;;;;;21.76;31.92;95030.94;6141569;28;110963;-79
2023/12/09 13:25:23;;;;;;;8.60;5.87;;;;;;;21.82;31.57;95048.38;6145022;28;109511;-78
2023/12/09 13:28:27;;;;;;;7.70;5.27;;;;;;;21.80;31.39;95053.19;6140338;28;109478;-78
2023/12/09 13:31:30;;;;;;;6.63;5.53;;;;;;;21.78;31.73;95050.06;6144663;28;110096;-80
2023/12/09 13:34:34;;;;;;;5.80;5.23;;;;;;;21.79;31.30;95055.09;6158775;28;109857;-80
2023/12/09 13:37:39;;;;;;;5.77;5.17;;;;;;;21.80;31.36;95055.88;6141036;28;109830;-82
2023/12/09 13:40:46;;;;;;;8.43;5.80;;;;;;;21.78;31.65;95053.50;6150557;28;109341;-86
2023/12/09 13:43:50;;;;;;;7.03;5.20;;;;;;;21.73;31.42;95047.53;6159800;28;112953;-81
2023/12/09 13:46:54;;;;;;;7.37;5.77;;;;;;;21.75;31.15;95045.34;6145182;28;109648;-81
2023/12/09 13:49:57;;;;;;;8.93;5.70;;;;;;;21.72;30.97;95041.41;6142907;28;109627;-80
2023/12/09 13:53:01;;;;;;;6.17;5.10;;;;;;;21.85;31.23;95041.69;6134754;28;112557;-79
2023/12/09 13:56:06;;;;;;;10.07;5.47;;;;;;;21.78;31.65;95040.19;6140996;28;113653;-80
2023/12/09 13:59:10;;;;;;;8.03;4.70;;;;;;;21.79;31.40;95048.97;6161131;28;109322;-81
2023/12/09 14:02:13;;;;;;;8.70;5.20;;;;;;;21.76;31.16;95047.69;6166746;28;109224;-79
2023/12/09 14:05:17;;;;;;;6.93;5.20;;;;;;;21.81;31.36;95054.78;6158016;28;109871;-78
2023/12/09 14:08:20;;;;;;;6.33;5.53;;;;;;;21.79;31.66;95051.63;6146215;28;109078;-78